Time;durP1;ratioP1;P1;durP2;ratioP2;P2;SDS_P1;SDS_P2;PMS_P1;PMS_P2;Temp;Humidity;BMP_temperature;BMP_pressure;BME280_temperature;BME280_humidity;BME280_pressure;Samples;Min_cycle;Max_cycle;Signal;HPM_P1;HPM_P2
2024/01/11 00:00:16;;;;;;;26.35;14.68;;;;;;;-2.78;61.96;102947.31;3609114;39;20431;-65
2024/01/11 00:02:41;;;;;;;28.73;15.35;;;;;;;-2.97;62.39;102920.47;3606419;39;20053;-65
2024/01/11 00:05:08;;;;;;;29.70;15.38;;;;;;;-2.83;62.41;102955.06;3613542;39;20067;-64
2024/01/11 00:07:34;;;;;;;25.98;14.30;;;;;;;-2.85;62.49;102949.75;3612286;39;20063;-65
2024/01/11 00:10:02;;;;;;;29.50;15.02;;;;;;;-2.86;62.27;102944.44;3610955;39;20050;-64
2024/01/11 00:12:28;;;;;;;29.08;15.43;;;;;;;-2.88;62.66;102951.41;3611017;39;20058;-64
2024/01/11 00:14:53;;;;;;;32.30;15.95;;;;;;;-2.91;62.28;102941.69;3611967;39;20123;-64
2024/01/11 00:17:19;;;;;;;31.20;15.07;;;;;;;-2.92;62.72;102944.25;3609671;39;20375;-64
2024/01/11 00:19:44;;;;;;;30.08;15.45;;;;;;;-2.99;62.76;102937.06;3612456;39;20062;-64
2024/01/11 00:22:10;;;;;;;30.05;14.35;;;;;;;-2.96;62.56;102947.66;3603101;39;20047;-64
2024/01/11 00:24:36;;;;;;;30.25;15.40;;;;;;;-2.98;63.24;102950.28;3610778;39;20067;-64
2024/01/11 00:27:01;;;;;;;29.08;15.90;;;;;;;-2.96;63.44;102955.56;3610177;39;20055;-64
2024/01/11 00:29:28;;;;;;;28.30;16.17;;;;;;;-3.17;63.06;102914.66;3599287;39;20090;-64
2024/01/11 00:31:54;;;;;;;28.48;15.00;;;;;;;-2.97;63.25;102940.63;3610178;39;20053;-64
2024/01/11 00:34:21;;;;;;;26.73;14.93;;;;;;;-3.08;63.02;102938.56;3610668;39;20387;-64
2024/01/11 00:36:47;;;;;;;26.08;14.88;;;;;;;-3.03;63.40;102946.59;3612937;39;20039;-64
2024/01/11 00:39:13;;;;;;;30.73;15.75;;;;;;;-3.05;63.70;102940.41;3611542;39;20143;-64
2024/01/11 00:41:38;;;;;;;26.17;14.57;;;;;;;-3.07;63.81;102940.38;3608904;39;20383;-64
2024/01/11 00:44:04;;;;;;;27.33;15.02;;;;;;;-3.41;64.04;102885.03;3612169;39;20047;-64
2024/01/11 00:46:30;;;;;;;26.00;14.43;;;;;;;-3.08;63.63;102943.81;3608773;39;20066;-64
2024/01/11 00:48:55;;;;;;;27.15;14.45;;;;;;;-3.08;63.68;102942.94;3612672;39;20498;-64
2024/01/11 00:51:21;;;;;;;31.20;15.75;;;;;;;-3.14;64.13;102938.44;3610137;39;20050;-64
2024/01/11 00:53:46;;;;;;;31.33;15.52;;;;;;;-3.13;64.06;102942.81;3610301;39;20054;-64
2024/01/11 00:56:19;;;;;;;28.90;14.85;;;;;;;-3.17;64.18;102943.59;3612923;39;20058;-64
2024/01/11 00:58:45;;;;;;;32.33;15.13;;;;;;;-3.16;64.26;102948.00;3611801;39;20074;-64
2024/01/11 01:01:12;;;;;;;26.10;16.38;;;;;;;-3.13;64.36;102950.72;3611691;39;20366;-64
2024/01/11 01:03:39;;;;;;;27.02;14.75;;;;;;;-3.13;64.15;102945.47;3600185;39;20051;-64
2024/01/11 01:06:05;;;;;;;29.73;16.15;;;;;;;-3.14;64.76;102945.41;3611841;39;20099;-64
2024/01/11 01:08:31;;;;;;;29.63;15.38;;;;;;;-3.15;64.16;102946.25;3601302;39;20150;-64
2024/01/11 01:10:57;;;;;;;31.45;15.90;;;;;;;-3.16;64.38;102945.38;3599637;39;20098;-63
2024/01/11 01:13:23;;;;;;;26.73;15.63;;;;;;;-3.17;64.57;102946.22;3611562;39;20124;-63
2024/01/11 01:15:49;;;;;;;26.70;15.15;;;;;;;-3.17;64.24;102964.63;3610151;39;20051;-64
2024/01/11 01:18:14;;;;;;;33.95;17.20;;;;;;;-3.18;64.52;102952.31;3611615;39;20463;-64
2024/01/11 01:20:40;;;;;;;30.08;15.60;;;;;;;-3.20;64.16;102959.28;3610893;39;20099;-64
2024/01/11 01:23:06;;;;;;;28.10;15.55;;;;;;;-3.31;64.50;102951.06;3611043;39;20070;-64
2024/01/11 01:25:32;;;;;;;31.10;14.88;;;;;;;-3.45;64.92;102919.97;3610034;39;20058;-64
2024/01/11 01:27:59;;;;;;;26.75;14.38;;;;;;;-3.23;64.83;102961.81;3609056;39;20094;-64
2024/01/11 01:30:25;;;;;;;32.60;16.38;;;;;;;-3.23;64.92;102963.56;3611471;39;20054;-64
2024/01/11 01:32:51;;;;;;;29.65;15.40;;;;;;;-3.29;65.11;102964.28;3612155;39;20306;-64
2024/01/11 01:35:16;;;;;;;28.08;15.68;;;;;;;-3.27;64.87;102973.06;3608433;39;20126;-64
2024/01/11 01:37:42;;;;;;;26.00;14.52;;;;;;;-3.28;64.98;102971.31;3609941;39;20078;-64
2024/01/11 01:40:09;;;;;;;28.80;15.15;;;;;;;-3.31;64.96;102979.09;3610627;39;20054;-64
2024/01/11 01:42:34;;;;;;;29.98;15.88;;;;;;;-3.33;64.76;102972.88;3607614;39;20117;-64
2024/01/11 01:45:00;;;;;;;27.45;14.75;;;;;;;-3.35;64.86;102975.50;3612282;39;20054;-64
2024/01/11 01:47:27;;;;;;;27.20;15.60;;;;;;;-3.35;64.78;102990.38;3608768;39;20446;-64
2024/01/11 01:49:55;;;;;;;28.80;16.40;;;;;;;-3.35;65.00;102990.38;3611179;39;20063;-64
2024/01/11 01:52:22;;;;;;;27.45;15.30;;;;;;;-3.36;65.10;103001.72;3607083;39;20391;-64
2024/01/11 01:54:49;;;;;;;29.88;16.05;;;;;;;-3.36;65.34;103001.72;3610140;39;20057;-65
2024/01/11 01:57:19;;;;;;;28.63;15.55;;;;;;;-3.38;65.43;102999.06;3609671;39;20392;-65
2024/01/11 01:59:51;;;;;;;28.55;14.80;;;;;;;-3.39;65.35;102999.03;3610415;39;20087;-65
2024/01/11 02:02:16;;;;;;;30.52;16.50;;;;;;;-3.72;65.35;102955.06;3606627;39;20051;-64
2024/01/11 02:04:42;;;;;;;31.50;15.90;;;;;;;-3.41;66.22;103008.59;3608996;39;20070;-65
2024/01/11 02:07:10;;;;;;;28.55;15.05;;;;;;;-3.40;65.69;103002.47;3611454;39;20092;-64
2024/01/11 02:09:37;;;;;;;27.60;15.13;;;;;;;-3.41;65.49;103003.34;3609699;39;20058;-64
2024/01/11 02:12:04;;;;;;;31.23;16.90;;;;;;;-3.42;65.54;102994.56;3610567;39;20051;-65
2024/01/11 02:14:31;;;;;;;30.83;16.58;;;;;;;-3.39;65.49;102999.91;3609376;39;20515;-64
2024/01/11 02:16:56;;;;;;;30.30;15.75;;;;;;;-3.40;65.09;102992.84;3609236;39;20055;-64
2024/01/11 02:19:22;;;;;;;31.80;16.00;;;;;;;-3.41;65.49;102977.03;3608814;39;20066;-64
2024/01/11 02:21:54;;;;;;;29.40;15.60;;;;;;;-3.43;65.65;102976.97;3610366;39;20055;-65
2024/01/11 02:24:20;;;;;;;29.63;17.33;;;;;;;-3.43;65.44;102978.72;3609490;39;20298;-65
2024/01/11 02:27:08;;;;;;;31.55;14.82;;;;;;;-3.45;65.12;102975.19;3611987;39;20058;-64
2024/01/11 02:29:33;;;;;;;29.08;15.55;;;;;;;-3.50;65.22;102970.66;3607853;39;20062;-64
2024/01/11 02:32:02;;;;;;;29.70;16.13;;;;;;;-3.48;65.76;102981.22;3609368;39;20054;-64
2024/01/11 02:34:29;;;;;;;24.55;15.55;;;;;;;-3.51;66.18;102984.66;3609597;39;20051;-64
2024/01/11 02:36:55;;;;;;;29.60;15.35;;;;;;;-3.56;66.18;102975.72;3602120;39;20055;-64
2024/01/11 02:39:24;;;;;;;28.35;15.88;;;;;;;-3.55;66.11;102984.53;3608078;39;20071;-64
2024/01/11 02:41:52;;;;;;;31.45;16.25;;;;;;;-3.68;66.03;102983.22;3609021;39;20061;-65
2024/01/11 02:44:18;;;;;;;33.72;16.80;;;;;;;-3.60;66.48;102994.00;3599837;39;20042;-64
2024/01/11 02:46:43;;;;;;;31.05;16.30;;;;;;;-3.64;66.51;102987.75;3606956;39;20131;-64
2024/01/11 02:49:09;;;;;;;30.10;15.25;;;;;;;-3.64;66.36;102990.38;3610491;39;20387;-65
2024/01/11 02:51:36;;;;;;;26.90;14.85;;;;;;;-3.63;66.74;102978.13;3609130;39;20067;-64
2024/01/11 02:54:02;;;;;;;29.25;16.05;;;;;;;-3.62;66.66;102988.66;3609127;39;20054;-64
2024/01/11 02:56:27;;;;;;;30.13;16.88;;;;;;;-3.65;66.55;102988.56;3608223;39;20379;-64
2024/01/11 02:58:53;;;;;;;26.08;15.68;;;;;;;-3.65;66.60;102990.31;3611162;39;20043;-64
2024/01/11 03:01:19;;;;;;;30.08;17.13;;;;;;;-3.70;67.00;102987.56;3607029;39;20101;-64
2024/01/11 03:03:44;;;;;;;29.92;16.40;;;;;;;-3.68;66.37;102988.47;3610598;39;20043;-64
2024/01/11 03:06:10;;;;;;;31.40;16.92;;;;;;;-3.82;66.87;102971.38;3609591;39;20051;-64
2024/01/11 03:08:36;;;;;;;28.83;15.90;;;;;;;-3.69;66.63;102986.69;3610317;39;20054;-64
2024/01/11 03:11:01;;;;;;;27.90;15.15;;;;;;;-3.72;66.56;102994.47;3608284;39;20047;-64
2024/01/11 03:13:27;;;;;;;30.40;15.52;;;;;;;-3.74;66.78;102990.94;3608069;39;20127;-64
2024/01/11 03:15:53;;;;;;;28.17;15.40;;;;;;;-3.76;66.80;102987.34;3612405;39;20061;-64
2024/01/11 03:18:18;;;;;;;28.00;15.55;;;;;;;-3.81;66.35;102991.56;3600602;39;20058;-63
2024/01/11 03:20:44;;;;;;;32.78;16.70;;;;;;;-3.80;66.75;103002.13;3611856;39;20063;-64
2024/01/11 03:23:09;;;;;;;32.03;16.35;;;;;;;-3.82;66.58;102997.66;3609985;39;20303;-64
2024/01/11 03:25:35;;;;;;;33.20;16.50;;;;;;;-3.84;67.09;103004.59;3606433;39;20082;-64
2024/01/11 03:28:01;;;;;;;29.88;15.75;;;;;;;-3.85;66.53;103001.09;3608140;39;20116;-64
2024/01/11 03:30:26;;;;;;;28.75;15.77;;;;;;;-3.84;67.19;102992.34;3608006;39;20295;-64
2024/01/11 03:32:53;;;;;;;29.75;16.73;;;;;;;-3.85;67.30;102987.06;3610214;39;20124;-64
2024/01/11 03:35:20;;;;;;;26.33;15.13;;;;;;;-3.84;67.45;102991.47;3613280;39;20062;-64
2024/01/11 03:37:46;;;;;;;28.88;15.05;;;;;;;-3.90;67.58;102979.03;3608884;39;20051;-64
2024/01/11 03:40:12;;;;;;;32.33;18.05;;;;;;;-3.84;67.37;102989.72;3609342;39;20047;-64
2024/01/11 03:42:37;;;;;;;30.70;15.98;;;;;;;-3.84;66.91;103005.47;3610704;39;20066;-64
2024/01/11 03:45:04;;;;;;;33.90;17.02;;;;;;;-3.86;67.07;102995.78;3610643;39;20307;-64
2024/01/11 03:47:30;;;;;;;34.30;17.40;;;;;;;-3.89;67.25;102985.19;3609046;39;20102;-64
2024/01/11 03:49:56;;;;;;;30.30;15.98;;;;;;;-3.88;67.31;102986.97;3610864;39;20059;-64
2024/01/11 03:52:21;;;;;;;28.50;16.08;;;;;;;-3.90;67.37;102979.03;3610405;39;20043;-64
2024/01/11 03:54:47;;;;;;;31.08;16.48;;;;;;;-3.90;67.15;102979.03;3610106;39;20094;-64
2024/01/11 03:57:14;;;;;;;33.42;16.75;;;;;;;-3.90;67.28;102980.75;3611898;39;20094;-64
2024/01/11 03:59:41;;;;;;;32.90;17.80;;;;;;;-3.92;67.31;102991.22;3613032;39;21138;-64
2024/01/11 04:02:07;;;;;;;30.60;16.30;;;;;;;-3.93;67.37;102999.97;3611100;39;20480;-64
2024/01/11 04:04:33;;;;;;;31.13;17.27;;;;;;;-3.93;67.53;103009.53;3609412;39;20062;-64
2024/01/11 04:06:59;;;;;;;32.33;16.88;;;;;;;-3.97;67.55;102993.69;3610574;39;20786;-64
2024/01/11 04:09:24;;;;;;;30.80;17.08;;;;;;;-3.98;67.83;102991.91;3610217;39;20066;-64
2024/01/11 04:11:50;;;;;;;32.30;16.88;;;;;;;-4.09;67.72;102966.13;3609428;39;20051;-64
2024/01/11 04:14:16;;;;;;;28.23;16.10;;;;;;;-4.10;67.75;102965.25;3608496;39;20062;-64
2024/01/11 04:16:43;;;;;;;31.50;17.17;;;;;;;-3.98;67.62;102988.41;3612157;39;20287;-63
2024/01/11 04:19:09;;;;;;;30.80;16.83;;;;;;;-3.97;67.43;102998.03;3612102;39;20119;-63
2024/01/11 04:21:38;;;;;;;33.92;17.55;;;;;;;-4.55;67.09;102910.38;3610013;39;20062;-63
2024/01/11 04:24:05;;;;;;;32.55;16.60;;;;;;;-4.03;67.16;103027.66;3601407;39;20112;-63
2024/01/11 04:26:31;;;;;;;29.70;16.52;;;;;;;-4.14;67.36;103025.50;3611925;39;20332;-63
2024/01/11 04:28:58;;;;;;;34.25;17.83;;;;;;;-4.12;67.79;103029.97;3610248;39;20060;-63
2024/01/11 04:31:24;;;;;;;33.28;18.77;;;;;;;-4.11;68.46;103026.50;3613300;39;20077;-63
2024/01/11 04:33:49;;;;;;;35.95;18.83;;;;;;;-4.11;68.14;103029.13;3608440;39;20400;-63
2024/01/11 04:36:15;;;;;;;34.38;18.02;;;;;;;-4.13;68.08;103022.03;3610101;39;20042;-63
2024/01/11 04:38:40;;;;;;;31.65;17.48;;;;;;;-4.14;67.57;103023.75;3610677;39;20063;-62
2024/01/11 04:41:11;;;;;;;29.90;16.45;;;;;;;-4.24;67.84;103012.06;3610274;39;20066;-63
2024/01/11 04:43:45;;;;;;;28.10;15.55;;;;;;;-4.17;67.69;103014.88;3611741;39;20063;-62
2024/01/11 04:46:19;;;;;;;31.00;16.35;;;;;;;-4.09;67.74;103035.31;3610180;39;20066;-62
2024/01/11 04:48:46;;;;;;;31.23;15.98;;;;;;;-4.07;67.46;103053.75;3610622;39;20051;-62
2024/01/11 04:51:13;;;;;;;32.35;16.33;;;;;;;-4.10;67.36;103049.28;3611963;39;20127;-62
2024/01/11 04:53:44;;;;;;;32.70;17.08;;;;;;;-4.10;68.09;103032.63;3608599;39;20120;-62
2024/01/11 04:56:13;;;;;;;26.70;16.08;;;;;;;-4.07;67.91;103025.75;3611817;39;20062;-62
2024/01/11 04:58:42;;;;;;;27.88;15.27;;;;;;;-4.07;67.89;103028.38;3610972;39;20124;-62
2024/01/11 05:01:16;;;;;;;32.38;15.05;;;;;;;-4.08;67.18;103030.97;3608856;39;20113;-61
2024/01/11 05:03:44;;;;;;;31.50;16.75;;;;;;;-4.44;67.37;102966.75;3609539;39;20094;-63
2024/01/11 05:06:21;;;;;;;33.53;15.57;;;;;;;-4.08;67.92;103031.84;3612222;39;20077;-60
2024/01/11 05:08:50;;;;;;;30.60;15.88;;;;;;;-4.12;67.95;103029.97;3609903;39;20118;-60
2024/01/11 05:11:24;;;;;;;27.65;15.30;;;;;;;-4.25;67.46;103007.66;3608034;39;20059;-63
2024/01/11 05:13:51;;;;;;;28.67;15.98;;;;;;;-4.09;67.71;103037.94;3608518;39;20055;-62
2024/01/11 05:16:28;;;;;;;31.17;15.88;;;;;;;-4.11;67.63;103042.25;3610357;39;20383;-63
2024/01/11 05:18:57;;;;;;;32.05;16.95;;;;;;;-4.10;67.37;103054.53;3608413;39;20433;-63
2024/01/11 05:21:24;;;;;;;32.13;15.88;;;;;;;-4.16;67.82;103049.06;3610183;39;20059;-63
2024/01/11 05:23:50;;;;;;;31.88;17.02;;;;;;;-4.17;68.24;103051.66;3601428;39;20128;-63
2024/01/11 05:26:18;;;;;;;30.55;17.17;;;;;;;-4.18;68.42;103056.00;3610162;39;20057;-63
2024/01/11 05:28:44;;;;;;;32.85;16.48;;;;;;;-4.20;67.86;103058.56;3606308;39;20050;-63
2024/01/11 05:31:15;;;;;;;33.42;15.63;;;;;;;-4.21;68.41;103055.91;3607883;39;20058;-62
2024/01/11 05:33:41;;;;;;;27.27;15.68;;;;;;;-4.22;68.81;103056.72;3610307;39;20106;-63
2024/01/11 05:36:08;;;;;;;28.38;15.50;;;;;;;-4.23;68.36;103065.44;3609153;39;20099;-63
2024/01/11 05:38:35;;;;;;;30.38;15.50;;;;;;;-4.26;68.62;103065.34;3610892;39;20127;-62
2024/01/11 05:41:01;;;;;;;33.28;16.25;;;;;;;-4.26;69.10;103081.97;3611837;39;20062;-62
2024/01/11 05:43:27;;;;;;;30.15;15.98;;;;;;;-4.29;68.59;103088.88;3611914;39;21426;-63
2024/01/11 05:45:53;;;;;;;30.10;16.50;;;;;;;-4.30;68.91;103092.34;3610205;39;20442;-63
2024/01/11 05:48:18;;;;;;;29.48;15.45;;;;;;;-4.36;69.60;103097.38;3609582;39;20066;-63
2024/01/11 05:50:44;;;;;;;29.70;16.15;;;;;;;-4.37;69.78;103096.47;3611026;39;20059;-64
2024/01/11 05:53:12;;;;;;;29.45;15.50;;;;;;;-4.35;69.78;103088.66;3609049;39;20046;-64
2024/01/11 05:55:37;;;;;;;29.58;15.43;;;;;;;-4.29;69.74;103078.38;3609821;39;20055;-62
2024/01/11 05:58:03;;;;;;;27.73;14.80;;;;;;;-4.33;69.94;103060.72;3609623;39;20055;-63
2024/01/11 06:00:29;;;;;;;29.05;15.55;;;;;;;-4.32;69.98;103057.25;3600346;39;20391;-63
2024/01/11 06:02:55;;;;;;;29.30;15.15;;;;;;;-4.25;69.72;103070.66;3611012;39;20077;-64
2024/01/11 06:05:21;;;;;;;26.85;14.73;;;;;;;-4.28;68.96;103070.56;3610126;39;20066;-63
2024/01/11 06:07:47;;;;;;;27.77;16.30;;;;;;;-4.25;69.24;103075.00;3610435;39;20081;-64
2024/01/11 06:10:14;;;;;;;26.33;15.30;;;;;;;-4.24;69.61;103092.56;3610549;39;20054;-63
2024/01/11 06:12:41;;;;;;;30.90;15.63;;;;;;;-4.27;70.10;103082.84;3608090;39;20065;-64
2024/01/11 06:15:07;;;;;;;29.90;15.68;;;;;;;-4.27;69.60;103100.31;3601446;39;20103;-63
2024/01/11 06:17:33;;;;;;;26.83;15.00;;;;;;;-4.29;69.69;103109.88;3610552;39;20050;-63
2024/01/11 06:19:58;;;;;;;29.15;14.93;;;;;;;-4.31;69.77;103125.59;3609201;39;20055;-63
2024/01/11 06:22:24;;;;;;;32.22;16.17;;;;;;;-4.30;69.05;103116.84;3611169;39;20050;-63
2024/01/11 06:24:50;;;;;;;29.55;15.57;;;;;;;-4.33;69.15;103115.84;3610484;39;20078;-63
2024/01/11 06:27:15;;;;;;;24.42;14.73;;;;;;;-4.38;69.85;103104.28;3608065;39;20315;-63
2024/01/11 06:29:41;;;;;;;29.27;14.73;;;;;;;-4.36;69.68;103107.88;3606860;39;20389;-63
2024/01/11 06:32:08;;;;;;;27.05;14.82;;;;;;;-4.38;69.69;103104.28;3609531;39;20047;-63
2024/01/11 06:34:35;;;;;;;28.02;14.80;;;;;;;-4.37;69.72;103100.84;3609527;39;20084;-63
2024/01/11 06:37:02;;;;;;;29.73;15.10;;;;;;;-4.57;69.93;103087.84;3609506;39;20055;-63
2024/01/11 06:39:29;;;;;;;27.60;14.57;;;;;;;-4.38;69.19;103118.28;3611052;39;20136;-63
2024/01/11 06:41:55;;;;;;;24.15;14.57;;;;;;;-4.38;70.26;103104.28;3601065;39;20445;-63
2024/01/11 06:44:21;;;;;;;26.48;13.98;;;;;;;-4.39;69.28;103105.13;3608816;39;20054;-63
2024/01/11 06:46:46;;;;;;;25.92;14.25;;;;;;;-4.42;69.25;103095.41;3607777;39;20047;-63
2024/01/11 06:49:12;;;;;;;28.02;14.98;;;;;;;-4.42;69.46;103108.53;3609144;39;20055;-63
2024/01/11 06:51:39;;;;;;;28.42;14.13;;;;;;;-4.44;69.60;103123.31;3606778;39;20055;-63
2024/01/11 06:54:04;;;;;;;28.58;15.52;;;;;;;-4.52;70.05;103107.31;3610046;39;20072;-63
2024/01/11 06:56:30;;;;;;;27.00;15.50;;;;;;;-4.49;70.47;103127.53;3624206;22;20114;-86
2024/01/11 06:58:56;;;;;;;26.88;14.95;;;;;;;-5.18;70.22;102999.03;3590309;39;20067;-85
2024/01/11 07:01:22;;;;;;;26.38;14.73;;;;;;;-5.19;70.47;103003.38;3605229;39;20047;-83
2024/01/11 07:03:49;;;;;;;24.90;14.63;;;;;;;-4.78;69.86;103092.31;3590671;39;20067;-83
2024/01/11 07:06:15;;;;;;;25.70;14.35;;;;;;;-4.76;70.52;103085.38;3599029;39;20055;-84
2024/01/11 07:08:41;;;;;;;28.65;15.60;;;;;;;-5.04;70.62;103041.47;3599676;39;20102;-83
2024/01/11 07:11:07;;;;;;;25.45;14.38;;;;;;;-5.02;69.71;103039.81;3588729;39;20064;-86
2024/01/11 07:13:33;;;;;;;29.98;14.48;;;;;;;-5.03;70.15;103038.03;3598220;39;20044;-83
2024/01/11 07:16:00;;;;;;;27.30;15.20;;;;;;;-4.88;70.35;103074.44;3583786;40;20080;-83
2024/01/11 07:18:26;;;;;;;30.35;14.70;;;;;;;-4.82;69.94;103093.03;3601529;39;20056;-81
2024/01/11 07:20:52;;;;;;;29.42;14.70;;;;;;;-5.06;70.66;103059.78;3587929;39;20059;-82
2024/01/11 07:23:18;;;;;;;27.95;15.45;;;;;;;-4.98;70.86;103084.59;3598107;39;20418;-84
2024/01/11 07:25:44;;;;;;;30.50;15.30;;;;;;;-4.91;71.25;103098.84;3587728;39;20055;-82
2024/01/11 07:28:10;;;;;;;30.17;15.80;;;;;;;-4.95;71.07;103095.22;3595689;39;20048;-83
2024/01/11 07:30:36;;;;;;;35.17;19.98;;;;;;;-4.89;71.29;103099.78;3600415;39;20062;-84
2024/01/11 07:33:01;;;;;;;30.38;15.00;;;;;;;-5.14;71.21;103048.09;3586986;40;20059;-83
2024/01/11 07:35:27;;;;;;;28.38;15.40;;;;;;;-5.03;72.07;103069.50;3591559;39;20063;-84
2024/01/11 07:37:53;;;;;;;26.60;14.60;;;;;;;-5.11;71.39;103061.34;3593377;39;20074;-84
2024/01/11 07:40:19;;;;;;;26.98;14.05;;;;;;;-5.32;71.51;103023.84;3598735;39;20076;-84
2024/01/11 07:42:46;;;;;;;27.08;15.10;;;;;;;-4.61;71.69;103154.19;3599837;39;20059;-82
2024/01/11 07:45:12;;;;;;;25.83;15.43;;;;;;;-5.09;71.41;103064.91;3586461;39;20052;-83
2024/01/11 07:47:39;;;;;;;28.20;14.20;;;;;;;-4.77;71.68;103110.72;3601074;39;20061;-83
2024/01/11 07:50:12;;;;;;;30.38;14.77;;;;;;;-4.68;71.99;103120.69;3598613;39;20078;-85
2024/01/11 07:52:42;;;;;;;29.13;14.60;;;;;;;-4.83;71.94;103084.25;3600087;39;20397;-83
2024/01/11 07:55:11;;;;;;;31.90;15.13;;;;;;;-4.73;71.76;103094.25;3597224;39;20087;-83
2024/01/11 07:57:37;;;;;;;26.60;14.82;;;;;;;-4.60;71.16;103129.72;3595027;39;20060;-84
2024/01/11 08:00:08;;;;;;;21.67;13.25;;;;;;;-4.87;71.72;103084.09;3596326;39;20125;-83
2024/01/11 08:02:35;;;;;;;23.80;13.73;;;;;;;-5.12;71.76;103043.81;3587503;39;20064;-84
2024/01/11 08:05:01;;;;;;;28.95;14.35;;;;;;;-4.59;71.11;103141.16;3598462;39;20055;-83
2024/01/11 08:07:30;;;;;;;24.67;13.07;;;;;;;-5.38;71.55;102999.16;3595453;39;20076;-86
2024/01/11 08:09:56;;;;;;;22.90;12.80;;;;;;;-4.78;71.51;103098.47;3584818;39;20071;-82
2024/01/11 08:12:22;;;;;;;26.30;13.88;;;;;;;-4.72;71.59;103093.44;3594829;39;20388;-83
2024/01/11 08:14:48;;;;;;;25.13;13.93;;;;;;;-4.35;71.23;103151.66;3585156;39;20309;-82
2024/01/11 08:17:15;;;;;;;22.70;13.43;;;;;;;-4.61;71.09;103112.22;3595114;39;20048;-83
2024/01/11 08:19:44;;;;;;;25.02;14.50;;;;;;;-4.34;71.90;103132.47;3597672;39;20136;-83
2024/01/11 08:22:11;;;;;;;24.30;13.77;;;;;;;-4.44;72.01;103116.38;3586744;39;20054;-84
2024/01/11 08:24:38;;;;;;;25.27;13.63;;;;;;;-4.93;71.69;103008.69;3598059;39;20044;-83
2024/01/11 08:27:04;;;;;;;27.35;14.07;;;;;;;-4.80;71.83;103023.16;3596911;39;20055;-84
2024/01/11 08:29:30;;;;;;;24.02;14.35;;;;;;;-4.65;71.31;103042.09;3586491;39;20347;-83
2024/01/11 08:31:56;;;;;;;23.27;13.55;;;;;;;-4.53;71.10;103062.66;3585345;39;20099;-84
2024/01/11 08:34:22;;;;;;;27.73;13.73;;;;;;;-4.18;70.87;103107.66;3598300;39;20455;-84
2024/01/11 08:36:48;;;;;;;27.23;14.18;;;;;;;-4.27;71.30;103098.59;3601078;39;20059;-85
2024/01/11 08:39:16;;;;;;;23.65;13.73;;;;;;;-4.73;71.53;103006.78;3586937;40;20055;-84
2024/01/11 08:41:42;;;;;;;30.30;15.00;;;;;;;-4.45;71.39;103056.81;3593242;39;20095;-84
2024/01/11 08:44:08;;;;;;;23.67;13.15;;;;;;;-4.68;71.16;103016.63;3584671;40;20050;-83
2024/01/11 08:46:34;;;;;;;24.90;14.00;;;;;;;-4.35;71.45;103067.63;3584952;39;20067;-83
2024/01/11 08:49:03;;;;;;;26.10;14.30;;;;;;;-4.22;71.50;103070.78;3603128;39;20044;-84
2024/01/11 08:51:29;;;;;;;23.33;13.35;;;;;;;-4.32;70.99;103036.25;3607384;39;20075;-85
2024/01/11 08:53:55;;;;;;;24.33;13.77;;;;;;;-4.02;70.81;103089.84;3603775;39;20149;-84
2024/01/11 08:56:22;;;;;;;24.83;13.93;;;;;;;-3.73;70.79;103126.72;3596018;39;20083;-83
2024/01/11 08:58:48;;;;;;;23.95;13.48;;;;;;;-3.65;71.04;103135.75;3596304;39;20109;-83
2024/01/11 09:01:14;;;;;;;33.03;14.27;;;;;;;-3.57;71.18;103146.53;3583257;40;20062;-84
2024/01/11 09:03:40;;;;;;;24.40;13.05;;;;;;;-3.73;70.66;103118.84;3595619;39;20478;-83
2024/01/11 09:06:06;;;;;;;26.17;14.52;;;;;;;-3.58;70.62;103145.66;3593315;39;20052;-84
2024/01/11 09:08:33;;;;;;;25.65;13.25;;;;;;;-3.41;70.32;103168.97;3596346;39;20143;-84
2024/01/11 09:11:00;;;;;;;21.83;13.43;;;;;;;-3.99;70.67;103053.19;3587095;39;20460;-84
2024/01/11 09:13:27;;;;;;;23.98;13.88;;;;;;;-3.49;70.37;103134.53;3595932;39;20064;-83
2024/01/11 09:15:54;;;;;;;27.00;14.77;;;;;;;-3.41;70.64;103137.44;3597998;39;20113;-84
2024/01/11 09:18:21;;;;;;;23.67;15.27;;;;;;;-3.37;70.39;103134.06;3590227;39;20052;-85
2024/01/11 09:20:48;;;;;;;25.30;14.90;;;;;;;-3.49;70.12;103105.63;3593915;39;20055;-84
2024/01/11 09:23:14;;;;;;;24.85;14.90;;;;;;;-3.64;70.07;103077.09;3597353;39;20048;-87
2024/01/11 09:25:40;;;;;;;27.00;14.15;;;;;;;-3.01;69.87;103170.25;3596385;39;20056;-85
2024/01/11 09:28:05;;;;;;;27.30;15.07;;;;;;;-3.52;70.12;103072.25;3596757;39;20269;-85
2024/01/11 09:30:31;;;;;;;28.77;14.77;;;;;;;-2.85;69.74;103177.81;3598874;39;20056;-84
2024/01/11 09:32:57;;;;;;;23.88;14.55;;;;;;;-3.03;69.35;103142.19;3590925;39;20112;-83
2024/01/11 09:35:23;;;;;;;24.17;14.80;;;;;;;-3.67;68.99;103015.69;3598918;39;20040;-84
2024/01/11 09:37:51;;;;;;;27.35;15.45;;;;;;;-3.16;69.03;103087.41;3595837;39;20052;-84
2024/01/11 09:40:18;;;;;;;23.40;14.27;;;;;;;-2.54;69.24;103189.28;3598668;39;20039;-87
2024/01/11 09:42:45;;;;;;;25.08;15.32;;;;;;;-2.45;69.47;103198.34;3607221;39;20048;-87
2024/01/11 09:45:16;;;;;;;25.45;14.55;;;;;;;-2.92;68.61;103096.88;3607298;39;20044;-85
2024/01/11 09:47:46;;;;;;;27.95;15.20;;;;;;;-2.33;67.53;103205.72;3603607;39;20040;-87
2024/01/11 09:50:17;;;;;;;24.35;14.93;;;;;;;-2.87;67.77;103105.81;3595859;39;20040;-83
2024/01/11 09:52:48;;;;;;;23.42;13.52;;;;;;;-2.34;67.70;103182.88;3589988;39;20064;-84
2024/01/11 09:55:14;;;;;;;26.90;16.05;;;;;;;-2.24;66.43;103194.59;3598372;39;20127;-84
2024/01/11 09:57:46;;;;;;;26.27;14.73;;;;;;;-2.01;67.74;103213.69;3589187;40;20115;-84
2024/01/11 10:00:24;;;;;;;27.17;14.80;;;;;;;-2.51;67.41;103106.00;3599927;39;20064;-86
2024/01/11 10:02:50;;;;;;;25.88;14.65;;;;;;;-2.40;66.61;103093.16;3597259;40;20056;-85
2024/01/11 10:05:19;;;;;;;27.98;15.30;;;;;;;-1.57;66.55;103219.28;3597193;39;20800;-84
2024/01/11 10:08:06;;;;;;;24.40;13.88;;;;;;;-1.30;65.80;103213.84;3593237;40;20040;-85
2024/01/11 10:10:32;;;;;;;26.77;15.02;;;;;;;-1.46;63.79;103149.22;3590047;40;20051;-85
2024/01/11 10:12:58;;;;;;;23.48;13.68;;;;;;;-1.04;63.12;103190.75;3595207;39;20106;-86
2024/01/11 10:15:24;;;;;;;25.70;15.13;;;;;;;-0.65;63.04;103225.13;3595820;39;20055;-85
2024/01/11 10:17:50;;;;;;;26.58;14.60;;;;;;;-0.76;61.32;103158.88;3588026;40;20424;-85
2024/01/11 10:20:23;;;;;;;23.77;14.52;;;;;;;-0.82;60.63;103127.03;3597462;39;20054;-83
2024/01/11 10:22:50;;;;;;;26.40;13.95;;;;;;;-0.30;61.01;103190.66;3588191;39;20342;-84
2024/01/11 10:25:17;;;;;;;27.13;15.20;;;;;;;0.05;60.32;103230.16;3599528;39;20070;-86
2024/01/11 10:27:45;;;;;;;24.23;15.18;;;;;;;-0.31;58.97;103142.22;3601560;39;20040;-87
2024/01/11 10:30:16;;;;;;;24.13;14.73;;;;;;;0.01;58.90;103154.28;3607465;39;20038;-89
2024/01/11 10:32:44;;;;;;;25.13;14.23;;;;;;;0.60;57.75;103231.22;3603182;39;20048;-86
2024/01/11 10:35:10;;;;;;;24.75;14.52;;;;;;;0.53;56.86;103161.41;3606239;39;20063;-89
2024/01/11 10:37:38;;;;;;;26.75;15.88;;;;;;;0.58;55.87;103135.94;3602122;39;20052;-84
2024/01/11 10:40:12;;;;;;;25.50;15.82;;;;;;;0.69;55.45;103133.44;3594517;39;20051;-85
2024/01/11 10:42:52;;;;;;;31.50;15.10;;;;;;;1.23;55.45;103187.25;3595931;39;20381;-86
2024/01/11 10:45:21;;;;;;;25.52;15.15;;;;;;;0.88;54.77;103110.81;3596536;39;20074;-85
2024/01/11 10:48:04;;;;;;;25.67;15.65;;;;;;;1.09;55.28;103116.41;3596042;39;20055;-86
2024/01/11 10:50:35;;;;;;;26.40;15.25;;;;;;;1.96;53.53;103219.16;3595273;39;20141;-85
2024/01/11 10:53:09;;;;;;;27.00;15.55;;;;;;;2.07;53.22;103218.44;3597503;39;20128;-86
2024/01/11 10:55:37;;;;;;;25.23;15.35;;;;;;;1.93;53.11;103166.97;3585831;40;20363;-88
2024/01/11 10:58:04;;;;;;;24.48;15.57;;;;;;;2.04;52.09;103169.75;3595563;39;20059;-86
2024/01/11 11:00:31;;;;;;;25.95;16.27;;;;;;;1.72;52.87;103095.16;3598583;39;20071;-89
2024/01/11 11:03:00;;;;;;;26.17;16.10;;;;;;;2.15;51.54;103124.75;3603946;39;20055;-90
2024/01/11 11:05:32;;;;;;;24.33;15.23;;;;;;;2.72;50.30;103200.53;3608364;39;20091;-89
2024/01/11 11:08:01;;;;;;;24.88;15.40;;;;;;;2.52;50.44;103147.25;3603829;39;20082;-88